createdAt,value
2017-06-03T00:01:00.218Z,85.90
2017-06-03T00:03:30.330Z,85.80
2017-06-03T00:06:00.506Z,86.40
2017-06-03T00:08:30.651Z,86.00
2017-06-03T00:11:02.082Z,86.30
2017-06-03T00:13:32.695Z,86.40
2017-06-03T00:16:02.859Z,86.40
2017-06-03T00:18:33.910Z,87.50
2017-06-03T00:21:04.402Z,86.70
2017-06-03T00:23:34.781Z,86.50
2017-06-03T00:26:05.089Z,86.60
2017-06-03T00:28:35.672Z,86.40
2017-06-03T00:31:05.853Z,86.90
2017-06-03T00:33:36.013Z,88.60
2017-06-03T00:36:07.147Z,88.50
2017-06-03T00:38:37.714Z,87.90
2017-06-03T00:41:07.843Z,87.30
2017-06-03T00:43:37.911Z,87.10
2017-06-03T00:46:08.945Z,86.70
2017-06-03T00:48:39.116Z,87.00
2017-06-03T00:51:09.243Z,85.90
2017-06-03T00:53:39.725Z,86.20
2017-06-03T00:56:09.818Z,86.10
2017-06-03T00:58:40.615Z,86.40
2017-06-03T01:01:11.264Z,86.40
2017-06-03T01:03:41.467Z,86.50
2017-06-03T01:06:12.691Z,86.80
2017-06-03T01:08:43.158Z,86.80
2017-06-03T01:11:13.220Z,86.90
2017-06-03T01:13:43.966Z,87.00
2017-06-03T01:16:14.101Z,87.10
2017-06-03T01:18:44.189Z,86.50
2017-06-03T01:21:14.340Z,86.90
2017-06-03T01:23:44.502Z,87.00
2017-06-03T01:26:14.647Z,87.30
2017-06-03T01:28:44.770Z,88.10
2017-06-03T01:31:15.008Z,88.10
2017-06-03T01:33:45.198Z,88.60
2017-06-03T01:36:15.387Z,88.60
2017-06-03T01:38:45.715Z,88.50
2017-06-03T01:41:15.907Z,88.50
2017-06-03T01:43:46.123Z,88.10
2017-06-03T01:46:16.282Z,88.80
2017-06-03T01:48:46.453Z,89.10
2017-06-03T01:51:16.915Z,89.00
2017-06-03T01:53:47.153Z,88.40
2017-06-03T01:56:17.378Z,88.50
2017-06-03T01:58:47.617Z,89.20
2017-06-03T02:01:18.100Z,89.00
2017-06-03T02:03:48.252Z,88.20
2017-06-03T02:06:19.331Z,88.40
2017-06-03T02:08:49.582Z,88.00
2017-06-03T02:11:19.727Z,88.60
2017-06-03T02:13:49.974Z,90.00
2017-06-03T02:16:20.833Z,90.50
2017-06-03T02:18:53.090Z,90.60
2017-06-03T02:21:23.498Z,90.40
2017-06-03T02:23:53.603Z,90.60
2017-06-03T02:26:24.633Z,90.60
2017-06-03T02:28:56.335Z,90.50
2017-06-03T02:31:27.034Z,90.00
2017-06-03T02:33:58.084Z,90.10
2017-06-03T02:36:28.822Z,90.50
2017-06-03T02:38:59.810Z,90.90
2017-06-03T02:41:29.882Z,91.40
2017-06-03T02:44:01.878Z,91.20
2017-06-03T02:46:32.616Z,90.90
2017-06-03T02:49:03.001Z,90.70
2017-06-03T02:51:33.047Z,90.40
2017-06-03T02:54:03.213Z,90.10
2017-06-03T02:56:33.360Z,90.30
2017-06-03T02:59:04.177Z,90.00
2017-06-03T03:01:35.364Z,90.10
2017-06-03T03:04:06.178Z,90.10
2017-06-03T03:06:36.957Z,90.10
2017-06-03T03:09:07.598Z,89.80
2017-06-03T03:11:37.734Z,88.70
2017-06-03T03:14:07.980Z,88.50
2017-06-03T03:16:38.239Z,86.70
2017-06-03T03:19:08.966Z,87.60
2017-06-03T03:21:39.288Z,87.00
2017-06-03T03:24:10.600Z,87.50
2017-06-03T03:26:41.209Z,87.30
2017-06-03T03:29:13.297Z,87.30
2017-06-03T03:31:44.198Z,87.60
2017-06-03T03:34:14.565Z,86.70
2017-06-03T03:36:46.323Z,87.90
2017-06-03T03:39:17.496Z,88.30
2017-06-03T03:41:47.707Z,85.60
2017-06-03T03:44:18.682Z,87.30
2017-06-03T03:46:48.856Z,84.70
2017-06-03T03:49:18.954Z,83.90
2017-06-03T03:51:49.554Z,85.10
2017-06-03T03:54:19.760Z,85.70
2017-06-03T03:56:49.947Z,85.00
2017-06-03T03:59:20.105Z,84.80
2017-06-03T04:01:50.707Z,85.20
2017-06-03T04:04:20.979Z,85.90
2017-06-03T04:06:52.179Z,86.60
2017-06-03T04:09:22.381Z,86.10
2017-06-03T04:11:52.657Z,85.90
2017-06-03T04:14:24.335Z,85.70
2017-06-03T04:16:55.121Z,85.50
2017-06-03T04:19:25.591Z,86.80
2017-06-03T04:21:56.555Z,86.20
2017-06-03T04:24:27.721Z,86.70
2017-06-03T04:26:58.468Z,87.20
2017-06-03T04:29:29.326Z,87.70
2017-06-03T04:31:59.949Z,88.20
2017-06-03T04:34:30.134Z,87.70
2017-06-03T04:37:00.518Z,87.50
2017-06-03T04:39:30.997Z,86.80
2017-06-03T04:42:02.671Z,86.80
2017-06-03T04:44:32.870Z,87.20
2017-06-03T04:47:03.705Z,86.80
2017-06-03T04:49:34.576Z,86.20
2017-06-03T04:52:05.436Z,85.30
2017-06-03T04:54:35.638Z,86.20
2017-06-03T04:57:05.847Z,85.90
2017-06-03T04:59:36.003Z,86.20
2017-06-03T05:02:07.843Z,87.00
2017-06-03T05:04:39.254Z,86.90
2017-06-03T05:07:09.396Z,87.90
2017-06-03T05:09:39.687Z,87.30
2017-06-03T05:12:09.844Z,87.70
2017-06-03T05:14:40.015Z,87.30
2017-06-03T05:17:10.960Z,85.80
2017-06-03T05:19:42.278Z,85.70
2017-06-03T05:22:12.578Z,86.70
2017-06-03T05:24:42.847Z,87.40
2017-06-03T05:27:12.926Z,87.70
2017-06-03T05:29:43.076Z,88.10
2017-06-03T05:32:16.032Z,89.00
2017-06-03T05:34:46.758Z,89.10
2017-06-03T05:37:17.986Z,89.20
2017-06-03T05:39:48.222Z,88.40
2017-06-03T05:42:18.507Z,87.10
2017-06-03T05:44:48.600Z,86.00
2017-06-03T05:47:19.742Z,87.40
2017-06-03T05:49:50.032Z,87.30
2017-06-03T05:52:20.247Z,87.60
2017-06-03T05:54:51.052Z,87.70
2017-06-03T05:57:21.286Z,86.90
2017-06-03T05:59:52.569Z,86.80
2017-06-03T06:02:22.705Z,88.10
2017-06-03T06:04:52.985Z,88.30
2017-06-03T06:07:23.195Z,87.80
2017-06-03T06:09:53.976Z,87.10
2017-06-03T06:12:25.643Z,88.00
2017-06-03T06:14:56.909Z,88.30
2017-06-03T06:17:26.996Z,87.50
2017-06-03T06:19:57.306Z,88.50
2017-06-03T06:22:27.495Z,84.70
2017-06-03T06:24:57.724Z,83.90
2017-06-03T06:27:27.966Z,85.10
2017-06-03T06:29:58.212Z,84.60
2017-06-03T06:32:28.321Z,81.10
2017-06-03T06:34:58.398Z,84.60
2017-06-03T06:37:28.579Z,86.40
2017-06-03T06:39:58.914Z,84.00
2017-06-03T06:42:29.249Z,82.50
2017-06-03T06:44:59.498Z,81.40
2017-06-03T06:47:29.626Z,81.80
2017-06-03T06:50:00.671Z,79.60
2017-06-03T06:52:31.003Z,79.80
2017-06-03T06:55:01.489Z,80.50
2017-06-03T06:57:31.623Z,79.00
2017-06-03T07:00:01.709Z,76.30
2017-06-03T07:02:33.179Z,77.40
2017-06-03T07:05:03.354Z,75.00
2017-06-03T07:07:33.521Z,75.30
2017-06-03T07:10:04.047Z,76.30
2017-06-03T07:12:34.238Z,74.30
2017-06-03T07:15:04.443Z,74.50
2017-06-03T07:17:36.214Z,73.50
2017-06-03T07:20:07.185Z,75.40
2017-06-03T07:22:37.364Z,73.90
2017-06-03T07:25:08.837Z,76.40
2017-06-03T07:27:41.037Z,73.90
2017-06-03T07:30:11.414Z,73.70
2017-06-03T07:32:41.611Z,71.30
2017-06-03T07:35:12.215Z,70.60
2017-06-03T07:37:42.418Z,68.30
2017-06-03T07:41:31.739Z,70.00
2017-06-03T07:44:02.813Z,67.10
2017-06-03T07:46:33.700Z,66.60
2017-06-03T07:49:03.812Z,66.70
2017-06-03T07:51:34.878Z,66.00
2017-06-03T07:54:05.102Z,63.90
2017-06-03T07:56:36.978Z,60.30
2017-06-03T07:59:07.884Z,60.30
2017-06-03T08:01:39.377Z,61.50
2017-06-03T08:04:11.450Z,57.00
2017-06-03T08:06:41.624Z,55.80
2017-06-03T08:09:12.012Z,56.20
2017-06-03T08:11:42.414Z,57.10
2017-06-03T08:14:12.648Z,55.00
2017-06-03T08:16:43.221Z,57.30
2017-06-03T08:19:13.358Z,57.60
2017-06-03T08:21:43.706Z,53.20
2017-06-03T08:24:16.438Z,52.30
2017-06-03T08:26:47.272Z,52.60
2017-06-03T08:29:17.619Z,53.10
2017-06-03T08:31:49.095Z,54.10
2017-06-03T08:34:19.736Z,53.20
2017-06-03T08:36:51.209Z,50.20
2017-06-03T08:39:21.456Z,52.10
2017-06-03T08:41:51.635Z,52.80
2017-06-03T08:44:21.923Z,53.10
2017-06-03T08:46:53.141Z,54.80
2017-06-03T08:49:23.390Z,54.80
2017-06-03T08:51:54.282Z,55.00
2017-06-03T08:54:24.561Z,54.70
2017-06-03T08:56:54.962Z,53.20
2017-06-03T08:59:25.120Z,52.50
2017-06-03T09:01:55.331Z,51.30
2017-06-03T09:04:25.603Z,51.80
2017-06-03T09:06:55.799Z,52.70
2017-06-03T09:09:26.134Z,50.40
2017-06-03T09:11:56.611Z,49.70
2017-06-03T09:14:27.855Z,47.00
2017-06-03T09:17:00.462Z,49.90
2017-06-03T09:19:31.914Z,49.90
2017-06-03T09:22:05.115Z,48.50
2017-06-03T09:24:37.412Z,47.00
2017-06-03T09:27:08.526Z,48.40
2017-06-03T09:29:38.707Z,49.20
2017-06-03T09:32:08.847Z,48.50
2017-06-03T09:34:39.063Z,49.20
2017-06-03T09:37:09.442Z,49.60
2017-06-03T09:39:39.698Z,49.10
2017-06-03T09:42:09.908Z,49.70
2017-06-03T09:44:40.162Z,48.70
2017-06-03T09:47:13.790Z,47.00
2017-06-03T09:49:48.755Z,46.10
2017-06-03T09:52:19.929Z,45.60
2017-06-03T09:54:50.087Z,45.90
2017-06-03T09:57:24.371Z,46.20
2017-06-03T09:59:54.697Z,46.60
2017-06-03T10:02:24.985Z,45.50
2017-06-03T10:04:56.015Z,44.00
2017-06-03T10:07:26.916Z,43.10
2017-06-03T10:09:57.242Z,43.50
2017-06-03T10:12:31.989Z,43.80
2017-06-03T10:15:03.013Z,44.80
2017-06-03T10:17:35.036Z,42.60
2017-06-03T10:20:06.635Z,41.70
2017-06-03T10:22:38.511Z,43.00
2017-06-03T10:25:08.768Z,46.70
2017-06-03T10:27:38.987Z,47.50
2017-06-03T10:30:09.140Z,46.80
2017-06-03T10:32:40.289Z,47.00
2017-06-03T10:35:10.435Z,47.20
2017-06-03T10:37:40.704Z,46.90
2017-06-03T10:40:11.702Z,43.30
2017-06-03T10:42:41.952Z,43.80
2017-06-03T10:45:12.232Z,44.40
2017-06-03T10:47:44.014Z,46.90
2017-06-03T10:50:14.352Z,44.90
2017-06-03T10:52:44.704Z,44.10
2017-06-03T10:55:14.886Z,45.00
2017-06-03T10:57:45.106Z,42.80
2017-06-03T11:00:15.331Z,43.50
2017-06-03T11:02:47.843Z,41.60
2017-06-03T11:05:20.538Z,42.90
2017-06-03T11:07:50.799Z,42.20
2017-06-03T11:10:21.152Z,39.30
2017-06-03T11:12:51.405Z,39.40
2017-06-03T11:15:21.612Z,41.20
2017-06-03T11:17:51.857Z,39.90
2017-06-03T11:20:22.014Z,40.30
2017-06-03T11:22:52.311Z,41.90
2017-06-03T11:25:22.443Z,42.70
2017-06-03T11:27:52.790Z,43.10
2017-06-03T11:30:23.022Z,42.70
2017-06-03T11:32:53.250Z,42.80
2017-06-03T11:35:23.670Z,41.80
2017-06-03T11:37:53.821Z,40.10
2017-06-03T11:40:23.988Z,40.20
2017-06-03T11:42:54.285Z,41.90
2017-06-03T11:45:25.297Z,43.90
2017-06-03T11:47:55.528Z,44.40
2017-06-03T11:50:25.918Z,46.30
2017-06-03T11:52:56.163Z,46.90
2017-06-03T11:55:26.733Z,44.60
2017-06-03T11:57:57.056Z,42.50
2017-06-03T12:00:27.359Z,39.50
2017-06-03T12:02:57.704Z,39.90
2017-06-03T12:05:28.716Z,39.60
2017-06-03T12:07:58.970Z,41.50
2017-06-03T12:10:29.194Z,42.30
2017-06-03T12:12:59.461Z,39.70
2017-06-03T12:15:29.792Z,40.50
2017-06-03T12:18:00.064Z,40.40
2017-06-03T12:20:30.354Z,42.20
2017-06-03T12:23:01.769Z,40.50
2017-06-03T12:25:32.679Z,37.90
2017-06-03T12:28:03.855Z,38.60
2017-06-03T12:30:33.974Z,38.20
2017-06-03T12:33:04.282Z,40.80
2017-06-03T12:35:37.975Z,39.80
2017-06-03T12:38:09.054Z,39.50
2017-06-03T12:40:39.371Z,40.00
2017-06-03T12:43:09.614Z,42.40
2017-06-03T12:45:40.021Z,40.30
2017-06-03T12:48:10.466Z,39.70
2017-06-03T12:50:40.726Z,39.50
2017-06-03T12:53:10.960Z,40.80
2017-06-03T12:55:41.205Z,41.70
2017-06-03T12:58:12.418Z,38.00
2017-06-03T13:00:43.558Z,35.60
2017-06-03T13:03:14.552Z,34.50
2017-06-03T13:05:45.667Z,33.10
2017-06-03T13:08:15.931Z,33.30
2017-06-03T13:10:48.131Z,32.10
2017-06-03T13:13:18.495Z,30.00
2017-06-03T13:15:48.687Z,32.20
2017-06-03T13:18:18.864Z,34.10
2017-06-03T13:20:49.200Z,33.90
2017-06-03T13:23:19.834Z,34.80
2017-06-03T13:25:50.591Z,35.80
2017-06-03T13:28:20.848Z,36.70
2017-06-03T13:30:51.147Z,38.30
2017-06-03T13:33:21.354Z,37.20
2017-06-03T13:35:51.470Z,37.70
2017-06-03T13:38:23.089Z,38.40
2017-06-03T13:40:53.358Z,36.90
2017-06-03T13:43:24.607Z,35.60
2017-06-03T13:45:54.842Z,34.40
2017-06-03T13:48:25.441Z,35.60
2017-06-03T13:50:59.942Z,38.00
2017-06-03T13:53:30.871Z,38.20
2017-06-03T13:56:01.182Z,40.80
2017-06-03T13:58:31.989Z,42.20
2017-06-03T14:01:02.107Z,41.20
2017-06-03T14:03:32.388Z,41.60
2017-06-03T14:06:02.693Z,41.80
2017-06-03T14:08:33.989Z,42.10
2017-06-03T14:11:05.339Z,42.70
2017-06-03T14:13:35.602Z,44.70
2017-06-03T14:16:06.091Z,47.00
2017-06-03T14:18:37.372Z,50.90
2017-06-03T14:21:07.739Z,59.50
2017-06-03T14:23:38.508Z,64.10
2017-06-03T14:26:08.853Z,68.50
2017-06-03T14:28:39.028Z,72.70
2017-06-03T14:31:09.323Z,77.40
2017-06-03T14:33:39.609Z,71.50
2017-06-03T14:36:09.879Z,69.00
2017-06-03T14:38:40.247Z,65.00
2017-06-03T14:41:10.760Z,68.90
2017-06-03T14:43:42.091Z,69.70
2017-06-03T14:46:12.754Z,63.30
2017-06-03T14:48:43.537Z,60.30
2017-06-03T14:51:14.326Z,65.50
2017-06-03T14:53:45.938Z,61.10
2017-06-03T14:56:16.267Z,60.80
2017-06-03T14:58:46.381Z,60.30
2017-06-03T15:01:16.507Z,56.60
2017-06-03T15:03:48.354Z,52.80
2017-06-03T15:06:19.873Z,53.80
2017-06-03T15:08:51.191Z,51.30
2017-06-03T15:11:22.922Z,52.60
2017-06-03T15:13:54.109Z,50.70
2017-06-03T15:16:25.356Z,50.10
2017-06-03T15:18:56.637Z,49.50
2017-06-03T15:21:28.422Z,51.50
2017-06-03T15:24:01.094Z,48.80
2017-06-03T15:26:32.531Z,48.60
2017-06-03T15:29:03.911Z,43.50
2017-06-03T15:31:34.504Z,41.90
2017-06-03T15:34:04.688Z,45.70
2017-06-03T15:36:34.959Z,46.90
2017-06-03T15:39:05.496Z,49.00
2017-06-03T15:41:38.386Z,47.10
2017-06-03T15:44:08.677Z,45.30
2017-06-03T15:46:38.839Z,45.90
2017-06-03T15:49:11.300Z,44.90
2017-06-03T15:51:46.560Z,45.40
2017-06-03T15:54:17.971Z,43.80
2017-06-03T15:56:48.322Z,49.30
2017-06-03T15:59:21.928Z,52.00
2017-06-03T16:01:53.197Z,52.30
2017-06-03T16:04:23.494Z,53.30
2017-06-03T16:06:53.848Z,51.80
2017-06-03T16:09:24.414Z,52.50
2017-06-03T16:11:55.123Z,53.80
2017-06-03T16:14:28.026Z,52.70
2017-06-03T16:16:58.565Z,53.80
2017-06-03T16:19:28.822Z,56.10
2017-06-03T16:22:00.237Z,54.70
2017-06-03T16:24:31.179Z,55.60
2017-06-03T16:27:02.156Z,55.00
2017-06-03T16:29:32.732Z,55.60
2017-06-03T16:32:03.425Z,56.50
2017-06-03T16:34:33.606Z,55.60
2017-06-03T16:37:03.878Z,55.50
2017-06-03T16:39:34.250Z,55.60
2017-06-03T16:42:04.722Z,56.10
2017-06-03T16:44:41.775Z,56.20
2017-06-03T16:47:13.780Z,55.50
2017-06-03T16:49:44.840Z,55.50
2017-06-03T16:52:16.027Z,55.40
2017-06-03T16:54:48.357Z,56.30
2017-06-03T16:57:18.607Z,58.50
2017-06-03T16:59:49.601Z,58.00
2017-06-03T17:02:19.870Z,57.40
2017-06-03T17:04:50.667Z,57.20
2017-06-03T17:07:21.570Z,57.90
2017-06-03T17:09:52.327Z,58.10
2017-06-03T17:12:23.067Z,58.30
2017-06-03T17:14:53.407Z,58.20
2017-06-03T17:17:24.933Z,58.10
2017-06-03T17:19:55.182Z,58.50
2017-06-03T17:22:26.626Z,58.30
2017-06-03T17:24:58.608Z,57.80
2017-06-03T17:27:29.169Z,57.20
2017-06-03T17:30:00.044Z,57.30
2017-06-03T17:32:31.541Z,56.90
2017-06-03T17:35:02.839Z,56.90
2017-06-03T17:37:33.373Z,57.40
2017-06-03T17:40:04.121Z,57.60
2017-06-03T17:42:34.789Z,57.00
2017-06-03T17:45:06.208Z,57.90
2017-06-03T18:25:10.659Z,62.10
2017-06-03T18:27:41.703Z,62.10
2017-06-03T18:30:11.942Z,63.00
2017-06-03T18:32:42.212Z,62.50
2017-06-03T18:35:12.486Z,63.20
2017-06-03T18:37:42.708Z,63.80
2017-06-03T18:40:13.907Z,64.50
2017-06-03T18:42:44.211Z,65.70
2017-06-03T18:45:14.464Z,66.60
2017-06-03T18:47:45.931Z,66.80
2017-06-03T18:50:16.435Z,66.40
2017-06-03T18:52:46.822Z,66.80
2017-06-03T18:55:17.619Z,66.70
2017-06-03T18:57:48.070Z,67.10
2017-06-03T19:00:19.454Z,67.00
2017-06-03T19:02:50.700Z,67.30
2017-06-03T19:05:20.927Z,66.90
2017-06-03T19:07:51.090Z,66.80
2017-06-03T19:10:21.974Z,65.70
2017-06-03T19:12:52.202Z,65.80
2017-06-03T19:15:22.480Z,65.10
2017-06-03T19:17:53.395Z,65.40
2017-06-03T19:20:23.543Z,65.40
2017-06-03T19:22:54.289Z,65.20
2017-06-03T19:25:25.662Z,65.00
2017-06-03T19:28:11.483Z,65.20
2017-06-03T19:30:41.934Z,65.70
2017-06-03T19:33:12.056Z,66.70
2017-06-03T19:35:42.156Z,65.60
2017-06-03T19:38:12.374Z,65.50
2017-06-03T19:40:42.482Z,66.20
2017-06-03T19:43:12.517Z,66.30
2017-06-03T19:45:42.592Z,65.90
2017-06-03T19:48:12.633Z,65.70
2017-06-03T19:50:45.265Z,66.30
2017-06-03T19:53:17.013Z,66.50
2017-06-03T19:55:50.339Z,67.00
2017-06-03T19:58:20.443Z,67.50
2017-06-03T20:00:51.168Z,67.60
2017-06-03T20:03:21.924Z,69.00
2017-06-03T20:05:51.972Z,69.60
2017-06-03T20:08:22.350Z,69.20
2017-06-03T20:10:52.657Z,69.50
2017-06-03T20:13:23.807Z,69.20
2017-06-03T20:15:53.951Z,69.30
2017-06-03T20:18:24.177Z,69.10
2017-06-03T20:20:55.001Z,69.60
2017-06-03T20:23:25.167Z,69.80
2017-06-03T20:25:56.554Z,70.70
2017-06-03T20:28:26.812Z,70.90
2017-06-03T20:30:57.743Z,69.70
2017-06-03T20:33:28.144Z,70.60
2017-06-03T20:35:58.986Z,71.00
2017-06-03T20:38:29.162Z,70.80
2017-06-03T20:40:59.356Z,70.80
2017-06-03T20:43:29.534Z,70.90
2017-06-03T20:45:59.704Z,70.90
2017-06-03T20:48:31.025Z,70.70
2017-06-03T20:51:01.249Z,70.00
2017-06-03T20:53:31.524Z,69.00
2017-06-03T20:56:01.821Z,67.90
2017-06-03T20:58:32.219Z,67.50
2017-06-03T21:01:04.427Z,68.20
2017-06-03T21:03:35.574Z,66.00
2017-06-03T21:06:10.344Z,65.70
2017-06-03T21:08:41.074Z,65.70
2017-06-03T21:11:13.670Z,63.20
2017-06-03T21:13:43.816Z,61.60
2017-06-03T21:16:15.258Z,59.90
2017-06-03T21:18:45.762Z,58.40
2017-06-03T21:21:18.006Z,59.00
2017-06-03T21:23:48.363Z,58.90
2017-06-03T21:26:19.422Z,58.70
2017-06-03T21:28:49.567Z,59.70
2017-06-03T21:31:21.388Z,60.40
2017-06-03T21:34:01.767Z,63.30
2017-06-03T21:36:33.713Z,64.80
2017-06-03T21:40:11.029Z,64.70
2017-06-03T21:42:41.440Z,69.00
2017-06-03T21:45:11.524Z,67.60
2017-06-03T21:47:43.725Z,69.60
2017-06-03T21:50:13.962Z,71.00
2017-06-03T21:52:44.190Z,74.80
2017-06-03T21:55:16.510Z,79.30
2017-06-03T21:57:47.254Z,79.20
2017-06-03T22:00:17.396Z,78.90
2017-06-03T22:02:47.771Z,83.00
2017-06-03T22:05:18.677Z,84.30
2017-06-03T22:07:49.910Z,84.60
2017-06-03T22:10:21.158Z,83.60
2017-06-03T22:12:51.786Z,83.60
2017-06-03T22:15:22.315Z,85.40
2017-06-03T22:17:52.978Z,83.90
2017-06-03T22:20:22.956Z,85.20
2017-06-03T22:22:52.941Z,86.40
2017-06-03T22:25:23.915Z,88.30
2017-06-03T22:27:55.743Z,88.50
2017-06-03T22:30:25.857Z,88.90
2017-06-03T22:32:56.350Z,89.50
2017-06-03T22:35:28.465Z,89.10
2017-06-03T22:37:58.522Z,88.90
2017-06-03T22:40:30.596Z,89.70
2017-06-03T22:43:01.911Z,89.70
2017-06-03T22:45:32.442Z,90.30
2017-06-03T22:48:03.329Z,90.40
2017-06-03T22:50:33.356Z,90.10
2017-06-03T22:53:06.211Z,90.20
2017-06-03T22:55:36.192Z,90.00
2017-06-03T22:58:07.092Z,89.80
2017-06-03T23:00:41.069Z,90.40
2017-06-03T23:03:11.365Z,90.10
2017-06-03T23:05:41.603Z,90.00
2017-06-03T23:08:13.189Z,90.10
2017-06-03T23:10:43.780Z,90.20
2017-06-03T23:13:13.813Z,90.50
2017-06-03T23:15:49.616Z,90.40
2017-06-03T23:18:20.169Z,90.20
2017-06-03T23:20:50.154Z,89.40
2017-06-03T23:23:20.164Z,90.20
2017-06-03T23:25:52.000Z,90.40
2017-06-03T23:28:25.732Z,90.40
2017-06-03T23:30:55.999Z,88.20
2017-06-03T23:33:26.883Z,88.90
2017-06-03T23:35:57.285Z,89.80
2017-06-03T23:38:30.693Z,89.30
2017-06-03T23:41:00.665Z,89.20
2017-06-03T23:43:33.202Z,90.00
2017-06-03T23:46:04.119Z,90.20
2017-06-03T23:48:34.607Z,90.40
2017-06-03T23:51:05.127Z,90.40
2017-06-03T23:53:35.510Z,90.00
2017-06-03T23:56:05.793Z,90.20
2017-06-03T23:58:38.763Z,90.90
